Time;durP1;ratioP1;P1;durP2;ratioP2;P2;SDS_P1;SDS_P2;PMS_P1;PMS_P2;Temp;Humidity;BMP_temperature;BMP_pressure;BME280_temperature;BME280_humidity;BME280_pressure;Samples;Min_cycle;Max_cycle;Signal;HPM_P1;HPM_P2
2023/08/13 00:00:44;;;;;;;1999.90;999.90;;;;;;;21.63;100.00;100342.25;5048488;28;20164;-58
2023/08/13 00:03:10;;;;;;;1999.90;999.90;;;;;;;21.65;100.00;100335.72;5048244;28;20096;-59
2023/08/13 00:05:35;;;;;;;1999.90;999.90;;;;;;;21.68;100.00;100348.19;5050500;28;20033;-58
2023/08/13 00:08:00;;;;;;;1999.90;999.90;;;;;;;21.66;100.00;100331.19;5052306;28;20032;-59
2023/08/13 00:10:26;;;;;;;1999.90;999.90;;;;;;;21.67;100.00;100322.94;5082058;28;20584;-59
2023/08/13 00:12:51;;;;;;;1999.90;999.90;;;;;;;21.71;100.00;100331.72;5088430;28;20016;-58
2023/08/13 00:15:17;;;;;;;1999.90;999.90;;;;;;;21.75;100.00;100330.50;5087190;28;20125;-58
2023/08/13 00:17:42;;;;;;;1999.90;999.90;;;;;;;21.78;100.00;100320.34;5070402;28;20085;-58
2023/08/13 00:20:09;;;;;;;1999.90;999.90;;;;;;;21.78;100.00;100330.31;5079025;28;20027;-58
2023/08/13 00:22:34;;;;;;;1999.90;999.90;;;;;;;21.76;100.00;100332.25;5085353;28;20032;-58
2023/08/13 00:24:59;;;;;;;1999.90;999.90;;;;;;;21.74;100.00;100328.78;5087480;28;20039;-59
2023/08/13 00:27:25;;;;;;;1999.90;999.90;;;;;;;21.75;100.00;100331.38;5086234;28;20020;-59
2023/08/13 00:29:50;;;;;;;1999.90;999.90;;;;;;;21.73;100.00;100327.06;5069439;28;20048;-58
2023/08/13 00:32:16;;;;;;;1999.90;999.90;;;;;;;21.76;100.00;100321.41;5067319;28;20032;-58
2023/08/13 00:34:41;;;;;;;1999.90;999.90;;;;;;;21.74;100.00;100315.25;5069660;28;20036;-58
2023/08/13 00:37:06;;;;;;;1999.90;999.90;;;;;;;21.72;100.00;100317.19;5066737;28;20477;-58
2023/08/13 00:39:32;;;;;;;1999.90;999.90;;;;;;;21.74;100.00;100317.94;5067998;28;20047;-58
2023/08/13 00:41:57;;;;;;;1999.90;999.90;;;;;;;21.75;100.00;100325.09;5070428;28;20031;-59
2023/08/13 00:44:23;;;;;;;1999.90;999.90;;;;;;;21.74;100.00;100320.66;5066603;28;20119;-58
2023/08/13 00:46:49;;;;;;;1999.90;999.90;;;;;;;21.75;100.00;100314.25;5066203;28;20025;-58
2023/08/13 00:49:15;;;;;;;1999.90;999.90;;;;;;;21.74;100.00;100317.94;5080842;28;20047;-58
2023/08/13 00:51:41;;;;;;;1999.90;999.90;;;;;;;21.70;100.00;100321.84;5085773;28;20108;-58
2023/08/13 00:54:08;;;;;;;1999.90;999.90;;;;;;;21.65;100.00;100332.16;5080430;28;20021;-58
2023/08/13 00:56:36;;;;;;;1999.90;999.90;;;;;;;21.59;100.00;100332.59;5086204;28;20448;-58
2023/08/13 00:59:02;;;;;;;1999.90;999.90;;;;;;;21.61;100.00;100330.66;5086517;28;20047;-59
2023/08/13 01:01:28;;;;;;;1999.90;999.90;;;;;;;21.57;100.00;100312.91;5070696;28;20124;-58
2023/08/13 01:03:54;;;;;;;1999.90;999.90;;;;;;;21.57;100.00;100326.44;5069502;28;20115;-58
2023/08/13 01:06:42;;;;;;;1999.90;999.90;;;;;;;21.50;100.00;100330.59;5068809;28;20387;-58
2023/08/13 01:09:19;;;;;;;1999.90;999.90;;;;;;;21.49;100.00;100334.25;5090895;28;20511;-58
2023/08/13 01:11:56;;;;;;;1999.90;999.90;;;;;;;21.44;100.00;100331.00;5071175;28;20032;-58
2023/08/13 01:14:44;;;;;;;1999.90;999.90;;;;;;;21.38;100.00;100323.34;5071111;28;20039;-58
2023/08/13 01:17:11;;;;;;;1999.90;999.90;;;;;;;21.37;100.00;100336.00;5067567;28;20090;-59
2023/08/13 01:19:36;;;;;;;1999.90;999.90;;;;;;;21.37;100.00;100345.94;5070936;28;20116;-58
2023/08/13 01:22:02;;;;;;;1999.90;999.90;;;;;;;21.41;100.00;100348.34;5069232;28;20032;-58
2023/08/13 01:24:27;;;;;;;1999.90;999.90;;;;;;;21.47;100.00;100347.03;5068613;28;20123;-58
2023/08/13 01:27:09;;;;;;;1999.90;999.90;;;;;;;21.50;100.00;100346.81;5073315;28;20048;-59
2023/08/13 01:29:48;;;;;;;1999.90;999.90;;;;;;;21.57;100.00;100354.38;5052521;28;20400;-58
2023/08/13 01:32:18;;;;;;;1999.90;999.90;;;;;;;21.63;100.00;100342.25;5055530;28;20058;-58
2023/08/13 01:34:45;;;;;;;1999.90;999.90;;;;;;;21.65;100.00;100345.69;5066164;28;20024;-58
2023/08/13 01:37:12;;;;;;;1999.90;999.90;;;;;;;21.68;100.00;100346.34;5069918;28;20028;-58
2023/08/13 01:39:37;;;;;;;1999.90;999.90;;;;;;;21.72;100.00;100344.28;5068214;28;20055;-58
2023/08/13 01:42:06;;;;;;;1999.90;999.90;;;;;;;21.64;100.00;100328.59;5085447;28;20068;-58
2023/08/13 01:44:31;;;;;;;1999.90;999.90;;;;;;;21.72;100.00;100337.03;5090932;28;20020;-58
2023/08/13 01:46:57;;;;;;;1999.90;999.90;;;;;;;21.74;100.00;100335.06;5062483;28;20021;-58
2023/08/13 01:49:22;;;;;;;1999.90;999.90;;;;;;;21.75;100.00;100330.50;5055111;28;20051;-58
2023/08/13 01:51:47;;;;;;;1999.90;999.90;;;;;;;21.75;100.00;100331.38;5070426;28;20513;-58
2023/08/13 01:54:13;;;;;;;1999.90;999.90;;;;;;;21.80;100.00;100331.06;5070335;28;20389;-58
2023/08/13 01:56:38;;;;;;;1999.90;999.90;;;;;;;21.80;100.00;100326.53;5054478;28;20086;-58
2023/08/13 01:59:04;;;;;;;1999.90;999.90;;;;;;;21.82;100.00;100326.41;5050563;28;20029;-58
2023/08/13 02:01:29;;;;;;;1999.90;999.90;;;;;;;21.86;100.00;100336.06;5052950;28;20116;-59
2023/08/13 02:03:54;;;;;;;1999.90;999.90;;;;;;;21.83;100.00;100333.53;5064580;28;20131;-58
2023/08/13 02:06:20;;;;;;;1999.90;999.90;;;;;;;21.81;100.00;100327.41;5090631;28;20027;-58
2023/08/13 02:08:45;;;;;;;1999.90;999.90;;;;;;;21.83;100.00;100326.28;5090334;28;20059;-58
2023/08/13 02:11:12;;;;;;;1999.90;999.90;;;;;;;21.84;100.00;100324.47;5068620;28;20057;-58
2023/08/13 02:13:37;;;;;;;1999.90;999.90;;;;;;;21.80;100.00;100322.94;5062073;28;20473;-58
2023/08/13 02:16:06;;;;;;;1999.90;999.90;;;;;;;21.76;100.00;100319.59;5065710;28;20021;-58
2023/08/13 02:18:31;;;;;;;1999.90;999.90;;;;;;;21.78;100.00;100324.88;5067837;28;20124;-58
2023/08/13 02:20:57;;;;;;;1999.90;999.90;;;;;;;21.80;100.00;100320.22;5068762;28;20036;-58
2023/08/13 02:23:23;;;;;;;1999.90;999.90;;;;;;;21.80;100.00;100322.94;5069247;28;20391;-58
2023/08/13 02:25:49;;;;;;;1999.90;999.90;;;;;;;21.81;100.00;100322.81;5057341;28;20029;-59
2023/08/13 02:28:14;;;;;;;1999.90;999.90;;;;;;;21.81;100.00;100327.41;5048773;28;20044;-58
2023/08/13 02:30:40;;;;;;;1999.90;999.90;;;;;;;21.72;100.00;100323.47;5062671;28;20253;-59
2023/08/13 02:33:05;;;;;;;1999.90;999.90;;;;;;;21.74;100.00;100328.78;5068579;28;20039;-58
2023/08/13 02:35:31;;;;;;;1999.90;999.90;;;;;;;21.70;100.00;100335.38;5068809;28;20036;-58
2023/08/13 02:37:56;;;;;;;1999.90;999.90;;;;;;;21.72;100.00;100334.31;5068919;28;20021;-58
2023/08/13 02:40:22;;;;;;;1999.90;999.90;;;;;;;21.71;100.00;100324.44;5063386;28;20037;-59
2023/08/13 02:42:47;;;;;;;1999.90;999.90;;;;;;;21.70;100.00;100329.97;5052377;28;20055;-58
2023/08/13 02:45:12;;;;;;;1999.90;999.90;;;;;;;21.68;100.00;100323.81;5076444;28;20024;-58
2023/08/13 02:47:38;;;;;;;1999.90;999.90;;;;;;;21.66;100.00;100331.19;5089691;28;20436;-58
2023/08/13 02:50:03;;;;;;;1999.90;999.90;;;;;;;21.64;100.00;100331.31;5082101;28;20028;-58
2023/08/13 02:52:29;;;;;;;1999.90;999.90;;;;;;;21.64;100.00;100333.13;5057440;28;20047;-59
2023/08/13 02:54:54;;;;;;;1999.90;999.90;;;;;;;21.61;100.00;100328.81;5056463;28;20392;-58
2023/08/13 02:57:20;;;;;;;1999.90;999.90;;;;;;;21.65;100.00;100329.44;5061900;28;20028;-59
2023/08/13 02:59:45;;;;;;;1999.90;999.90;;;;;;;21.63;100.00;100324.13;5049370;28;20508;-59
2023/08/13 03:02:11;;;;;;;1999.90;999.90;;;;;;;21.59;100.00;100319.94;5051806;28;20036;-58
2023/08/13 03:04:36;;;;;;;1999.90;999.90;;;;;;;21.54;100.00;100316.72;5049573;28;20515;-58
2023/08/13 03:07:01;;;;;;;1999.90;999.90;;;;;;;21.54;100.00;100326.66;5049348;28;20021;-58
2023/08/13 03:09:27;;;;;;;1999.90;999.90;;;;;;;21.52;100.00;100326.78;5075738;28;20044;-58
2023/08/13 03:11:52;;;;;;;1999.90;999.90;;;;;;;21.50;100.00;100330.59;5085912;28;20031;-58
2023/08/13 03:14:18;;;;;;;1999.90;999.90;;;;;;;21.52;100.00;100328.59;5088997;28;20028;-58
2023/08/13 03:16:43;;;;;;;1999.90;999.90;;;;;;;21.53;100.00;100324.94;5077472;28;20039;-59
2023/08/13 03:19:09;;;;;;;1999.90;999.90;;;;;;;21.52;100.00;100323.19;5070868;28;20063;-58
2023/08/13 03:21:34;;;;;;;1999.90;999.90;;;;;;;21.46;100.00;100324.53;5087973;28;20024;-58
2023/08/13 03:23:59;;;;;;;1999.90;999.90;;;;;;;21.51;100.00;100318.75;5087995;28;20051;-58
2023/08/13 03:26:25;;;;;;;1999.90;999.90;;;;;;;21.48;100.00;100314.44;5073219;28;20112;-58
2023/08/13 03:28:50;;;;;;;1999.90;999.90;;;;;;;21.45;100.00;100320.06;5067087;28;20040;-59
2023/08/13 03:31:16;;;;;;;1999.90;999.90;;;;;;;21.46;100.00;100312.81;5067353;28;20068;-58
2023/08/13 03:33:41;;;;;;;1999.90;999.90;;;;;;;21.45;100.00;100317.34;5068200;28;20020;-59
2023/08/13 03:36:06;;;;;;;1999.90;999.90;;;;;;;21.42;100.00;100312.16;5071211;28;20070;-58
2023/08/13 03:38:32;;;;;;;1999.90;999.90;;;;;;;21.44;100.00;100315.63;5068666;28;20912;-58
2023/08/13 03:40:57;;;;;;;1999.90;999.90;;;;;;;21.46;100.00;100311.00;5085943;28;20587;-58
2023/08/13 03:43:23;;;;;;;1999.90;999.90;;;;;;;21.44;100.00;100312.06;5086830;28;20023;-58
2023/08/13 03:45:48;;;;;;;1999.90;999.90;;;;;;;21.44;100.00;100314.75;5086390;28;20079;-58
2023/08/13 03:48:14;;;;;;;1999.90;999.90;;;;;;;21.45;100.00;100324.63;5084381;28;20020;-58
2023/08/13 03:50:41;;;;;;;1999.90;999.90;;;;;;;21.45;100.00;100321.94;5081082;28;20134;-58
2023/08/13 03:53:07;;;;;;;1999.90;999.90;;;;;;;21.52;100.00;100320.47;5085917;28;20027;-58
2023/08/13 03:55:32;;;;;;;1999.90;999.90;;;;;;;21.55;100.00;100317.53;5086060;28;20028;-58
2023/08/13 03:57:57;;;;;;;1999.90;999.90;;;;;;;21.57;100.00;100321.00;5080570;28;20036;-58
2023/08/13 04:00:23;;;;;;;1999.90;999.90;;;;;;;21.62;100.00;100319.72;5067555;28;20032;-59
2023/08/13 04:02:49;;;;;;;1999.90;999.90;;;;;;;21.62;100.00;100313.44;5070149;28;20023;-58
2023/08/13 04:05:14;;;;;;;1999.90;999.90;;;;;;;21.64;100.00;100306.94;5067515;28;20035;-58
2023/08/13 04:07:40;;;;;;;1999.90;999.90;;;;;;;21.62;100.00;100305.31;5068284;28;20033;-58
2023/08/13 04:10:06;;;;;;;1999.90;999.90;;;;;;;21.62;100.00;100308.00;5068236;28;20074;-58
2023/08/13 04:12:31;;;;;;;1999.90;999.90;;;;;;;21.59;100.00;100310.94;5080439;28;20067;-58
2023/08/13 04:14:57;;;;;;;1999.90;999.90;;;;;;;21.62;100.00;100310.72;5066915;28;20029;-58
2023/08/13 04:17:22;;;;;;;1999.90;999.90;;;;;;;21.54;100.00;100311.28;5082200;28;20183;-58
2023/08/13 04:19:47;;;;;;;1999.90;999.90;;;;;;;21.47;100.00;100314.53;5084681;28;20028;-58
2023/08/13 04:22:13;;;;;;;1999.90;999.90;;;;;;;21.42;100.00;100317.59;5087185;28;20040;-58
2023/08/13 04:24:39;;;;;;;1999.90;999.90;;;;;;;21.42;100.00;100314.00;5086158;28;20047;-58
2023/08/13 04:27:04;;;;;;;1999.90;999.90;;;;;;;21.38;100.00;100320.63;5082698;28;20059;-58
2023/08/13 04:29:31;;;;;;;1999.90;999.90;;;;;;;21.35;100.00;100319.00;5064954;28;20493;-58
2023/08/13 04:31:56;;;;;;;1999.90;999.90;;;;;;;21.30;100.00;100317.63;5065650;28;20036;-58
2023/08/13 04:34:21;;;;;;;1999.90;999.90;;;;;;;21.29;100.00;100313.16;5069217;28;20032;-58
2023/08/13 04:36:47;;;;;;;1999.90;999.90;;;;;;;21.27;100.00;100302.44;5067137;28;20823;-58
2023/08/13 04:39:12;;;;;;;1999.90;999.90;;;;;;;21.29;100.00;100308.63;5067976;28;20037;-58
2023/08/13 04:41:40;;;;;;;1999.90;999.90;;;;;;;21.30;100.00;100307.63;5085028;28;20055;-58
2023/08/13 04:44:05;;;;;;;1999.90;999.90;;;;;;;21.29;100.00;100308.63;5073147;28;20131;-58
2023/08/13 04:46:31;;;;;;;1999.90;999.90;;;;;;;21.35;100.00;100305.47;5071868;28;20504;-58
2023/08/13 04:48:56;;;;;;;1999.90;999.90;;;;;;;21.37;100.00;100314.34;5072638;28;20101;-58
2023/08/13 04:51:22;;;;;;;1999.90;999.90;;;;;;;21.41;100.00;100312.28;5087547;28;20078;-58
2023/08/13 04:53:47;;;;;;;1999.90;999.90;;;;;;;21.40;100.00;100324.09;5092165;28;20543;-58
2023/08/13 04:56:13;;;;;;;1999.90;999.90;;;;;;;21.44;100.00;100328.28;5091445;28;20039;-58
2023/08/13 04:58:38;;;;;;;1999.90;999.90;;;;;;;21.38;100.00;100334.16;5092025;28;20020;-58
2023/08/13 05:01:05;;;;;;;1999.90;999.90;;;;;;;21.36;100.00;100328.00;5087884;28;20044;-58
2023/08/13 05:03:31;;;;;;;1999.90;999.90;;;;;;;21.39;100.00;100328.63;5091970;28;20019;-58
2023/08/13 05:05:57;;;;;;;1999.90;999.90;;;;;;;21.41;100.00;100328.53;5087652;28;20475;-58
2023/08/13 05:08:22;;;;;;;1999.90;999.90;;;;;;;21.43;100.00;100313.03;5070638;28;20060;-58
2023/08/13 05:10:48;;;;;;;1999.90;999.90;;;;;;;21.46;100.00;100318.22;5070503;28;20485;-58
2023/08/13 05:13:13;;;;;;;1999.90;999.90;;;;;;;21.50;100.00;100330.59;5072415;28;20115;-58
2023/08/13 05:15:39;;;;;;;1999.90;999.90;;;;;;;21.50;100.00;100325.16;5070157;28;20054;-58
2023/08/13 05:18:05;;;;;;;1999.90;999.90;;;;;;;21.51;100.00;100327.75;5070622;28;20495;-58
2023/08/13 05:20:30;;;;;;;1999.90;999.90;;;;;;;21.51;100.00;100332.31;5088477;28;20129;-58
2023/08/13 05:22:56;;;;;;;1999.90;999.90;;;;;;;21.50;100.00;100323.31;5076896;28;20026;-59
2023/08/13 05:25:21;;;;;;;1999.90;999.90;;;;;;;21.51;100.00;100326.88;5090564;28;20587;-58
2023/08/13 05:27:47;;;;;;;1999.90;999.90;;;;;;;21.55;100.00;100318.41;5091297;28;20109;-58
2023/08/13 05:30:12;;;;;;;1999.90;999.90;;;;;;;21.55;100.00;100317.53;5089003;28;20081;-58
2023/08/13 05:32:37;;;;;;;1999.90;999.90;;;;;;;21.60;100.00;100318.97;5073330;28;20115;-58
2023/08/13 05:35:03;;;;;;;1999.90;999.90;;;;;;;21.64;100.00;100322.31;5070843;28;20025;-58
2023/08/13 05:37:29;;;;;;;1999.90;999.90;;;;;;;21.68;100.00;100319.25;5072187;28;20339;-58
2023/08/13 05:39:54;;;;;;;1999.90;999.90;;;;;;;21.73;100.00;100321.66;5072192;28;20097;-58
2023/08/13 05:42:20;;;;;;;1999.90;999.90;;;;;;;21.79;100.00;100337.47;5077924;28;20081;-59
2023/08/13 05:44:45;;;;;;;1999.90;999.90;;;;;;;21.82;100.00;100326.41;5090857;28;20060;-59
2023/08/13 05:47:11;;;;;;;1999.90;999.90;;;;;;;21.89;100.00;100330.41;5086154;28;20031;-59
2023/08/13 05:49:36;;;;;;;1999.90;999.90;;;;;;;21.96;100.00;100326.22;5077479;28;20028;-58
2023/08/13 05:52:02;;;;;;;1999.90;999.90;;;;;;;22.06;100.00;100327.28;5089813;28;20587;-59
2023/08/13 05:54:27;;;;;;;1999.90;999.90;;;;;;;22.18;100.00;100323.66;5086813;28;20558;-59
2023/08/13 05:56:53;;;;;;;1999.90;999.90;;;;;;;22.30;100.00;100328.16;5090578;28;20491;-58
2023/08/13 05:59:19;;;;;;;1999.90;999.90;;;;;;;22.41;100.00;100325.50;5090787;28;20378;-59
2023/08/13 06:01:44;;;;;;;1999.90;999.90;;;;;;;22.50;100.00;100327.53;5088864;28;20028;-59
2023/08/13 06:04:10;;;;;;;1999.90;999.90;;;;;;;22.61;100.00;100333.00;5070605;28;20043;-59
2023/08/13 06:06:35;;;;;;;1999.90;999.90;;;;;;;22.68;100.00;100338.81;5072299;28;20024;-59
2023/08/13 06:09:01;;;;;;;1999.90;999.90;;;;;;;22.77;100.00;100338.97;5069301;28;20071;-59
2023/08/13 06:11:26;;;;;;;1999.90;999.90;;;;;;;22.90;100.00;100328.06;5089156;28;20097;-59
2023/08/13 06:13:52;;;;;;;1999.90;999.90;;;;;;;22.97;100.00;100330.16;5085452;28;20027;-59
2023/08/13 06:16:17;;;;;;;1999.90;999.90;;;;;;;23.04;100.00;100336.84;5077983;28;20095;-59
2023/08/13 06:18:42;;;;;;;1999.90;999.90;;;;;;;23.06;100.00;100334.84;5073029;28;20024;-59
2023/08/13 06:21:08;;;;;;;1999.90;999.90;;;;;;;23.09;100.00;100331.91;5075267;28;20101;-59
2023/08/13 06:23:33;;;;;;;1999.90;999.90;;;;;;;23.08;100.00;100322.00;5070223;28;20032;-59
2023/08/13 06:25:59;;;;;;;1999.90;999.90;;;;;;;23.12;100.00;100323.50;5085133;28;20035;-59
2023/08/13 06:28:24;;;;;;;1999.90;999.90;;;;;;;23.21;100.00;100321.94;5090031;28;20077;-59
2023/08/13 06:30:50;;;;;;;1999.90;999.90;;;;;;;23.27;100.00;100322.34;5084365;28;20028;-59
2023/08/13 06:33:15;;;;;;;1999.90;999.90;;;;;;;23.31;100.00;100328.38;5089621;28;20024;-59
2023/08/13 06:35:46;;;;;;;1999.90;999.90;;;;;;;23.35;100.00;100319.88;5089927;28;20024;-59
2023/08/13 06:38:12;;;;;;;1999.90;999.90;;;;;;;23.41;100.00;100327.50;5074452;28;20036;-59
2023/08/13 06:40:37;;;;;;;1999.90;999.90;;;;;;;23.52;100.00;100323.06;5069635;28;20781;-59
2023/08/13 06:43:03;;;;;;;1999.90;999.90;;;;;;;23.74;100.00;100320.34;5071465;28;20115;-59
2023/08/13 06:45:29;;;;;;;1999.90;999.90;;;;;;;23.94;100.00;100328.56;5069604;28;20060;-59
2023/08/13 06:47:57;;;;;;;1999.90;999.90;;;;;;;24.20;100.00;100329.16;5069712;28;20028;-59
2023/08/13 06:50:23;;;;;;;1999.90;999.90;;;;;;;24.49;100.00;100333.00;5081845;28;20024;-59
2023/08/13 06:52:49;;;;;;;1999.90;999.90;;;;;;;24.69;100.00;100329.50;5080048;28;20035;-58
2023/08/13 06:55:14;;;;;;;1999.90;999.90;;;;;;;24.89;100.00;100330.50;5078770;28;20021;-59
2023/08/13 06:57:40;;;;;;;1999.90;999.90;;;;;;;25.07;100.00;100332.47;5086577;28;20082;-59
2023/08/13 07:00:06;;;;;;;1999.90;999.90;;;;;;;25.14;100.00;100336.38;5069057;28;20106;-59
2023/08/13 07:02:31;;;;;;;1999.90;999.90;;;;;;;25.12;100.00;100319.34;5068606;28;20446;-59
2023/08/13 07:04:57;;;;;;;1999.90;999.90;;;;;;;25.03;100.00;100319.25;5068230;28;20029;-59
2023/08/13 07:07:22;;;;;;;1999.90;999.90;;;;;;;25.05;100.00;100315.41;5070101;28;20558;-59
2023/08/13 07:09:48;;;;;;;1999.90;999.90;;;;;;;25.07;100.00;100318.88;5070980;28;20045;-58
2023/08/13 07:12:13;;;;;;;1999.90;999.90;;;;;;;25.13;100.00;100329.22;5064158;28;20021;-59
2023/08/13 07:14:39;;;;;;;1999.90;999.90;;;;;;;25.29;100.00;100315.97;5068180;28;20115;-59
2023/08/13 07:17:04;;;;;;;1999.90;999.90;;;;;;;25.63;100.00;100319.31;5068207;28;20084;-59
2023/08/13 07:19:30;;;;;;;1999.90;999.90;;;;;;;25.86;100.00;100321.66;5056972;28;20113;-59
2023/08/13 07:21:55;;;;;;;1999.90;999.90;;;;;;;26.10;100.00;100312.28;5085390;28;20036;-59
2023/08/13 07:24:21;;;;;;;1999.90;999.90;;;;;;;26.26;100.00;100313.47;5085740;28;20034;-59
2023/08/13 07:26:46;;;;;;;1999.90;999.90;;;;;;;26.12;97.83;100318.47;5082835;28;20389;-59
2023/08/13 07:29:12;;;;;;;1999.90;999.90;;;;;;;26.27;97.40;100311.59;5049874;28;20035;-59
2023/08/13 07:31:37;;;;;;;1999.90;999.90;;;;;;;26.57;95.57;100325.97;5048170;28;20187;-59
2023/08/13 07:34:03;;;;;;;1999.90;999.90;;;;;;;27.05;94.75;100315.06;5056690;28;20033;-59
2023/08/13 07:36:29;;;;;;;1999.90;999.90;;;;;;;27.44;91.80;100313.94;5066958;28;20114;-59
2023/08/13 07:38:54;;;;;;;1999.90;999.90;;;;;;;27.89;88.52;100319.50;5068112;28;20028;-60
2023/08/13 07:41:19;;;;;;;1999.90;999.90;;;;;;;28.34;86.15;100321.25;5065397;28;20056;-60
2023/08/13 07:43:45;;;;;;;1999.90;999.90;;;;;;;28.58;81.91;100326.13;5063309;28;20020;-60
2023/08/13 07:46:10;;;;;;;1999.90;999.90;;;;;;;28.77;81.05;100334.16;5088805;28;20030;-60
2023/08/13 07:48:36;;;;;;;1999.90;999.90;;;;;;;28.99;79.59;100343.78;5088898;28;20035;-60
2023/08/13 07:51:01;;;;;;;1999.90;999.90;;;;;;;28.98;78.17;100347.53;5067512;28;20154;-60
2023/08/13 07:53:29;;;;;;;1999.90;999.90;;;;;;;29.04;77.03;100341.41;5049698;28;20027;-60
2023/08/13 07:55:54;;;;;;;1999.90;999.90;;;;;;;28.97;77.10;100351.28;5063144;28;20085;-60
2023/08/13 07:58:20;;;;;;;1999.90;999.90;;;;;;;28.88;78.73;100346.78;5051061;28;20041;-60
2023/08/13 08:00:45;;;;;;;1999.90;999.90;;;;;;;28.76;79.15;100348.03;5048899;28;20039;-60
2023/08/13 08:03:11;;;;;;;1999.90;999.90;;;;;;;28.67;79.74;100332.53;5046248;28;20033;-60
2023/08/13 08:05:36;;;;;;;1999.90;999.90;;;;;;;28.55;78.81;100339.28;5046654;28;20036;-60
2023/08/13 08:08:02;;;;;;;1999.90;999.90;;;;;;;28.38;79.73;100333.56;5050305;28;20043;-60
2023/08/13 08:10:28;;;;;;;1999.90;999.90;;;;;;;28.23;80.14;100329.69;5066116;28;20503;-60
2023/08/13 08:12:54;;;;;;;1999.90;999.90;;;;;;;28.08;80.22;100331.22;5069620;28;20038;-60
2023/08/13 08:15:21;;;;;;;1999.90;999.90;;;;;;;28.10;81.41;100323.72;5078019;28;20031;-60
2023/08/13 08:17:47;;;;;;;1999.90;999.90;;;;;;;28.13;83.15;100320.69;5088356;28;20380;-60
2023/08/13 08:20:12;;;;;;;1999.90;999.90;;;;;;;28.32;78.71;100323.25;5084285;28;20043;-60
2023/08/13 08:22:37;;;;;;;1999.90;999.90;;;;;;;29.13;76.04;100324.03;5088303;28;20035;-60
2023/08/13 08:25:08;;;;;;;1999.90;999.90;;;;;;;29.76;69.62;100319.13;5087683;28;20024;-60
2023/08/13 08:27:33;;;;;;;1999.90;999.90;;;;;;;30.09;68.13;100319.09;5086239;28;20045;-60
2023/08/13 08:29:59;;;;;;;1999.90;999.90;;;;;;;29.61;64.94;100327.94;5070398;28;20033;-60
2023/08/13 08:32:25;;;;;;;1999.90;999.90;;;;;;;29.73;68.10;100314.84;5082587;28;20027;-60
2023/08/13 08:34:50;;;;;;;1068.85;512.78;;;;;;;30.13;67.08;100314.97;5086753;28;20818;-60
2023/08/13 08:37:15;;;;;;;1999.90;999.90;;;;;;;30.49;66.76;100321.97;5088157;28;20027;-60
2023/08/13 08:39:41;;;;;;;1999.90;999.90;;;;;;;31.04;61.49;100315.84;5084930;28;20638;-61
2023/08/13 08:42:09;;;;;;;1114.80;513.35;;;;;;;31.77;61.83;100311.91;5066391;28;20416;-61
2023/08/13 08:44:40;;;;;;;1999.90;999.90;;;;;;;32.51;57.08;100314.13;5074206;28;20032;-61
2023/08/13 08:47:07;;;;;;;1087.30;507.55;;;;;;;33.06;54.75;100315.63;5082291;28;20028;-61
2023/08/13 08:49:34;;;;;;;1999.90;999.90;;;;;;;33.36;51.38;100311.84;5085523;28;20032;-61
2023/08/13 08:51:59;;;;;;;1999.90;999.90;;;;;;;33.47;48.29;100307.81;5071686;28;20032;-61
2023/08/13 08:54:25;;;;;;;1999.90;999.90;;;;;;;33.58;45.88;100303.69;5067108;28;20032;-61
2023/08/13 08:56:50;;;;;;;1581.15;759.03;;;;;;;33.25;47.83;100305.94;5068730;28;20139;-61
2023/08/13 08:59:15;;;;;;;1320.38;534.38;;;;;;;32.92;51.15;100301.78;5065871;28;20029;-61
2023/08/13 09:01:41;;;;;;;1901.47;804.22;;;;;;;33.12;51.96;100302.97;5066101;28;20033;-61
2023/08/13 09:04:07;;;;;;;1999.90;999.90;;;;;;;33.36;52.11;100309.09;5068562;28;20097;-61
2023/08/13 09:06:54;;;;;;;1999.90;999.90;;;;;;;33.11;51.21;100296.59;5073373;28;20099;-61
2023/08/13 09:09:19;;;;;;;762.60;106.60;;;;;;;32.90;46.48;100301.97;5073939;28;20044;-61
2023/08/13 09:11:46;;;;;;;1999.90;999.90;;;;;;;32.48;46.04;100293.31;5065166;28;20411;-61
2023/08/13 09:14:11;;;;;;;1999.90;999.90;;;;;;;32.30;48.49;100301.00;5067646;28;20040;-61
2023/08/13 09:16:37;;;;;;;1999.90;999.90;;;;;;;31.94;50.43;100294.31;5057562;28;20025;-61
2023/08/13 09:19:03;;;;;;;1999.90;999.90;;;;;;;31.67;49.44;100294.75;5048914;28;20519;-61
2023/08/13 09:21:29;;;;;;;1435.32;166.30;;;;;;;31.18;50.01;100284.88;5066957;28;20020;-61
2023/08/13 09:23:56;;;;;;;1999.90;999.90;;;;;;;30.68;51.17;100288.69;5066707;28;20035;-61
2023/08/13 09:26:25;;;;;;;1013.78;305.77;;;;;;;30.39;53.61;100287.47;5063584;28;20024;-61
2023/08/13 09:28:50;;;;;;;1329.38;338.70;;;;;;;30.26;59.31;100276.97;5069449;28;20554;-61
2023/08/13 09:31:16;;;;;;;1999.90;999.90;;;;;;;30.18;61.17;100284.31;5070566;28;20140;-61
2023/08/13 09:33:44;;;;;;;1999.90;999.90;;;;;;;30.19;60.30;100275.91;5069439;28;20815;-61
2023/08/13 09:36:10;;;;;;;1999.90;999.90;;;;;;;29.88;62.33;100279.41;5057684;28;20672;-61
2023/08/13 09:38:35;;;;;;;1157.00;537.35;;;;;;;29.58;66.17;100283.53;5071318;28;20138;-61
2023/08/13 09:41:01;;;;;;;1999.90;999.90;;;;;;;29.27;64.86;100285.97;5070476;28;20035;-61
2023/08/13 09:43:29;;;;;;;1999.90;999.90;;;;;;;29.08;63.94;100288.03;5070898;28;20115;-62
2023/08/13 09:45:56;;;;;;;733.33;90.97;;;;;;;29.01;67.16;100293.25;5066940;28;20020;-60
2023/08/13 09:48:25;;;;;;;1999.90;999.90;;;;;;;29.00;69.14;100280.59;5070170;28;20099;-60
2023/08/13 09:50:55;;;;;;;1999.90;999.90;;;;;;;29.07;67.21;100281.69;5069121;28;20028;-60
2023/08/13 09:53:23;;;;;;;1999.90;999.90;;;;;;;29.24;64.19;100280.78;5069754;28;20040;-60
2023/08/13 09:55:51;;;;;;;659.08;115.10;;;;;;;29.42;61.91;100276.09;5067680;28;20028;-62
2023/08/13 09:58:18;;;;;;;1999.90;999.90;;;;;;;29.61;60.02;100278.59;5069547;28;20500;-61
2023/08/13 10:00:45;;;;;;;292.48;42.08;;;;;;;29.81;58.20;100271.00;5069476;28;20484;-61
2023/08/13 10:03:11;;;;;;;1999.90;999.90;;;;;;;29.78;58.14;100271.31;5067707;28;20039;-61
2023/08/13 10:05:38;;;;;;;1999.90;999.90;;;;;;;29.81;59.20;100271.00;5052927;28;20024;-61
2023/08/13 10:08:05;;;;;;;1999.90;999.90;;;;;;;29.87;60.77;100275.78;5052320;28;20096;-61
2023/08/13 10:10:31;;;;;;;1999.90;999.90;;;;;;;29.70;61.38;100285.00;5078215;28;20114;-61
2023/08/13 10:12:57;;;;;;;1999.90;999.90;;;;;;;29.51;65.38;100287.97;5090552;28;20103;-61
2023/08/13 10:15:22;;;;;;;1999.90;999.90;;;;;;;29.27;65.03;100288.69;5090358;28;20027;-61
2023/08/13 10:17:49;;;;;;;1999.90;999.90;;;;;;;28.99;67.86;100288.97;5090393;28;20388;-61
2023/08/13 10:20:17;;;;;;;1999.90;999.90;;;;;;;28.66;69.35;100284.28;5082601;28;20028;-61
2023/08/13 10:22:44;;;;;;;1999.90;999.90;;;;;;;28.28;71.42;100289.03;5090135;28;20027;-61
2023/08/13 10:25:25;;;;;;;1572.30;758.63;;;;;;;27.89;73.32;100305.81;5089625;28;20449;-61
2023/08/13 10:27:53;;;;;;;1999.90;999.90;;;;;;;27.51;73.58;100315.09;5089021;28;20758;-61
2023/08/13 10:30:19;;;;;;;1999.90;999.90;;;;;;;27.21;75.07;100312.56;5071687;28;20033;-61
2023/08/13 10:32:53;;;;;;;1999.90;999.90;;;;;;;27.07;78.96;100293.88;5069865;28;20640;-61
2023/08/13 10:35:23;;;;;;;1520.25;752.33;;;;;;;26.96;79.55;100283.16;5076901;28;20091;-61
2023/08/13 10:37:51;;;;;;;1999.90;999.90;;;;;;;26.74;80.18;100276.16;5084899;28;20172;-61